sensor_id;sensor_type;location;lat;lon;timestamp;P1;durP1;ratioP1;P2;durP2;ratioP2
24008;SDS011;12217;50.792;4.372;2022-11-20T00:00:37;76.47;;;42.55;;
24008;SDS011;12217;50.792;4.372;2022-11-20T00:03:03;73.20;;;43.03;;
24008;SDS011;12217;50.792;4.372;2022-11-20T00:05:31;76.63;;;43.92;;
24008;SDS011;12217;50.792;4.372;2022-11-20T00:07:57;80.43;;;44.05;;
24008;SDS011;12217;50.792;4.372;2022-11-20T00:10:23;80.22;;;43.33;;
24008;SDS011;12217;50.792;4.372;2022-11-20T00:12:49;73.03;;;42.38;;
24008;SDS011;12217;50.792;4.372;2022-11-20T00:15:14;69.90;;;43.38;;
24008;SDS011;12217;50.792;4.372;2022-11-20T00:17:40;76.82;;;43.35;;
24008;SDS011;12217;50.792;4.372;2022-11-20T00:20:06;78.78;;;44.58;;
24008;SDS011;12217;50.792;4.372;2022-11-20T00:22:32;71.18;;;42.95;;
24008;SDS011;12217;50.792;4.372;2022-11-20T00:24:57;74.32;;;44.00;;
24008;SDS011;12217;50.792;4.372;2022-11-20T00:27:23;68.00;;;42.25;;
24008;SDS011;12217;50.792;4.372;2022-11-20T00:29:49;69.30;;;42.30;;
24008;SDS011;12217;50.792;4.372;2022-11-20T00:32:14;73.18;;;43.83;;
24008;SDS011;12217;50.792;4.372;2022-11-20T00:34:40;68.82;;;42.25;;
24008;SDS011;12217;50.792;4.372;2022-11-20T00:37:06;70.32;;;43.80;;
24008;SDS011;12217;50.792;4.372;2022-11-20T00:39:31;67.10;;;41.13;;
24008;SDS011;12217;50.792;4.372;2022-11-20T00:41:57;64.07;;;40.08;;
24008;SDS011;12217;50.792;4.372;2022-11-20T00:44:22;66.43;;;40.67;;
24008;SDS011;12217;50.792;4.372;2022-11-20T00:46:48;67.32;;;41.03;;
24008;SDS011;12217;50.792;4.372;2022-11-20T00:49:14;68.82;;;41.08;;
24008;SDS011;12217;50.792;4.372;2022-11-20T00:51:39;67.18;;;40.08;;
24008;SDS011;12217;50.792;4.372;2022-11-20T00:54:05;66.57;;;39.50;;
24008;SDS011;12217;50.792;4.372;2022-11-20T00:56:30;73.47;;;40.63;;
24008;SDS011;12217;50.792;4.372;2022-11-20T00:58:58;68.55;;;40.08;;
24008;SDS011;12217;50.792;4.372;2022-11-20T01:01:25;63.53;;;40.28;;
24008;SDS011;12217;50.792;4.372;2022-11-20T01:03:51;67.10;;;40.67;;
24008;SDS011;12217;50.792;4.372;2022-11-20T01:06:19;67.65;;;41.72;;
24008;SDS011;12217;50.792;4.372;2022-11-20T01:08:47;63.35;;;39.70;;
24008;SDS011;12217;50.792;4.372;2022-11-20T01:11:15;69.03;;;40.42;;
24008;SDS011;12217;50.792;4.372;2022-11-20T01:13:45;63.03;;;39.92;;
24008;SDS011;12217;50.792;4.372;2022-11-20T01:16:17;66.40;;;38.55;;
24008;SDS011;12217;50.792;4.372;2022-11-20T01:18:48;64.13;;;39.28;;
24008;SDS011;12217;50.792;4.372;2022-11-20T01:21:16;63.20;;;39.80;;
24008;SDS011;12217;50.792;4.372;2022-11-20T01:23:44;68.47;;;41.05;;
24008;SDS011;12217;50.792;4.372;2022-11-20T01:26:14;64.97;;;39.72;;
24008;SDS011;12217;50.792;4.372;2022-11-20T01:28:45;66.65;;;40.25;;
24008;SDS011;12217;50.792;4.372;2022-11-20T01:31:18;67.47;;;40.70;;
24008;SDS011;12217;50.792;4.372;2022-11-20T01:33:49;64.75;;;39.80;;
24008;SDS011;12217;50.792;4.372;2022-11-20T01:36:17;67.35;;;40.78;;
24008;SDS011;12217;50.792;4.372;2022-11-20T01:38:44;67.05;;;41.88;;
24008;SDS011;12217;50.792;4.372;2022-11-20T01:41:11;67.03;;;40.22;;
24008;SDS011;12217;50.792;4.372;2022-11-20T01:43:59;65.80;;;39.33;;
24008;SDS011;12217;50.792;4.372;2022-11-20T01:46:25;69.95;;;41.78;;
24008;SDS011;12217;50.792;4.372;2022-11-20T01:48:58;70.88;;;41.58;;
24008;SDS011;12217;50.792;4.372;2022-11-20T01:54:00;73.25;;;43.33;;
24008;SDS011;12217;50.792;4.372;2022-11-20T01:56:30;68.55;;;41.17;;
24008;SDS011;12217;50.792;4.372;2022-11-20T01:58:59;73.25;;;41.72;;
24008;SDS011;12217;50.792;4.372;2022-11-20T02:01:29;67.43;;;41.92;;
24008;SDS011;12217;50.792;4.372;2022-11-20T02:03:54;64.25;;;40.88;;
24008;SDS011;12217;50.792;4.372;2022-11-20T02:06:25;67.28;;;41.17;;
24008;SDS011;12217;50.792;4.372;2022-11-20T02:08:54;66.20;;;40.42;;
24008;SDS011;12217;50.792;4.372;2022-11-20T02:11:20;62.83;;;40.42;;
24008;SDS011;12217;50.792;4.372;2022-11-20T02:13:46;66.15;;;40.80;;
24008;SDS011;12217;50.792;4.372;2022-11-20T02:16:18;71.90;;;41.65;;
24008;SDS011;12217;50.792;4.372;2022-11-20T02:18:45;66.78;;;41.45;;
24008;SDS011;12217;50.792;4.372;2022-11-20T02:26:50;71.82;;;41.70;;
24008;SDS011;12217;50.792;4.372;2022-11-20T02:29:42;65.07;;;39.63;;
24008;SDS011;12217;50.792;4.372;2022-11-20T02:32:25;66.05;;;38.97;;
24008;SDS011;12217;50.792;4.372;2022-11-20T02:34:52;62.55;;;37.58;;
24008;SDS011;12217;50.792;4.372;2022-11-20T02:37:18;60.83;;;37.38;;
24008;SDS011;12217;50.792;4.372;2022-11-20T02:39:47;62.17;;;36.33;;
24008;SDS011;12217;50.792;4.372;2022-11-20T02:42:15;61.10;;;37.10;;
24008;SDS011;12217;50.792;4.372;2022-11-20T02:44:42;65.53;;;37.55;;
24008;SDS011;12217;50.792;4.372;2022-11-20T02:47:08;60.20;;;35.65;;
24008;SDS011;12217;50.792;4.372;2022-11-20T02:49:34;62.35;;;37.25;;
24008;SDS011;12217;50.792;4.372;2022-11-20T02:51:59;68.05;;;37.90;;
24008;SDS011;12217;50.792;4.372;2022-11-20T02:54:25;62.40;;;37.08;;
24008;SDS011;12217;50.792;4.372;2022-11-20T02:56:51;62.25;;;36.25;;
24008;SDS011;12217;50.792;4.372;2022-11-20T02:59:17;58.95;;;34.35;;
24008;SDS011;12217;50.792;4.372;2022-11-20T03:01:43;65.35;;;36.00;;
24008;SDS011;12217;50.792;4.372;2022-11-20T03:04:08;60.60;;;35.47;;
24008;SDS011;12217;50.792;4.372;2022-11-20T03:06:34;56.92;;;32.83;;
24008;SDS011;12217;50.792;4.372;2022-11-20T03:09:00;58.55;;;35.20;;
24008;SDS011;12217;50.792;4.372;2022-11-20T03:11:25;56.83;;;33.20;;
24008;SDS011;12217;50.792;4.372;2022-11-20T03:13:51;54.55;;;33.05;;
24008;SDS011;12217;50.792;4.372;2022-11-20T03:16:18;56.20;;;34.33;;
24008;SDS011;12217;50.792;4.372;2022-11-20T03:18:45;59.22;;;34.10;;
24008;SDS011;12217;50.792;4.372;2022-11-20T03:21:11;56.70;;;33.60;;
24008;SDS011;12217;50.792;4.372;2022-11-20T03:23:38;58.30;;;32.25;;
24008;SDS011;12217;50.792;4.372;2022-11-20T03:26:08;54.53;;;32.17;;
24008;SDS011;12217;50.792;4.372;2022-11-20T03:28:34;53.72;;;31.95;;
24008;SDS011;12217;50.792;4.372;2022-11-20T03:31:04;58.75;;;32.50;;
24008;SDS011;12217;50.792;4.372;2022-11-20T03:33:35;57.28;;;33.53;;
24008;SDS011;12217;50.792;4.372;2022-11-20T03:36:02;57.80;;;32.45;;
24008;SDS011;12217;50.792;4.372;2022-11-20T03:38:29;52.38;;;31.73;;
24008;SDS011;12217;50.792;4.372;2022-11-20T03:41:03;54.90;;;31.75;;
24008;SDS011;12217;50.792;4.372;2022-11-20T03:43:31;54.10;;;31.83;;
24008;SDS011;12217;50.792;4.372;2022-11-20T03:45:57;54.38;;;30.98;;
24008;SDS011;12217;50.792;4.372;2022-11-20T03:48:23;56.83;;;32.03;;
24008;SDS011;12217;50.792;4.372;2022-11-20T03:50:49;53.38;;;31.48;;
24008;SDS011;12217;50.792;4.372;2022-11-20T03:53:15;48.80;;;30.63;;
24008;SDS011;12217;50.792;4.372;2022-11-20T03:55:41;55.20;;;31.40;;
24008;SDS011;12217;50.792;4.372;2022-11-20T03:58:07;56.42;;;31.10;;
24008;SDS011;12217;50.792;4.372;2022-11-20T04:00:34;55.10;;;32.17;;
24008;SDS011;12217;50.792;4.372;2022-11-20T04:03:00;54.13;;;31.48;;
24008;SDS011;12217;50.792;4.372;2022-11-20T04:05:27;55.80;;;31.77;;
24008;SDS011;12217;50.792;4.372;2022-11-20T04:07:53;55.22;;;32.05;;
24008;SDS011;12217;50.792;4.372;2022-11-20T04:10:19;54.08;;;32.08;;
24008;SDS011;12217;50.792;4.372;2022-11-20T04:12:44;60.35;;;33.70;;
24008;SDS011;12217;50.792;4.372;2022-11-20T04:15:10;56.08;;;32.58;;
24008;SDS011;12217;50.792;4.372;2022-11-20T04:17:36;56.70;;;32.40;;
24008;SDS011;12217;50.792;4.372;2022-11-20T04:20:02;55.42;;;32.75;;
24008;SDS011;12217;50.792;4.372;2022-11-20T04:22:28;58.03;;;31.58;;
24008;SDS011;12217;50.792;4.372;2022-11-20T04:24:54;58.67;;;32.28;;
24008;SDS011;12217;50.792;4.372;2022-11-20T04:27:19;60.17;;;33.83;;
24008;SDS011;12217;50.792;4.372;2022-11-20T04:29:45;66.20;;;35.03;;
24008;SDS011;12217;50.792;4.372;2022-11-20T04:32:11;64.72;;;34.88;;
24008;SDS011;12217;50.792;4.372;2022-11-20T04:34:37;66.32;;;34.65;;
24008;SDS011;12217;50.792;4.372;2022-11-20T04:37:02;63.00;;;33.92;;
24008;SDS011;12217;50.792;4.372;2022-11-20T04:39:28;64.78;;;34.35;;
24008;SDS011;12217;50.792;4.372;2022-11-20T04:41:53;62.00;;;33.97;;
24008;SDS011;12217;50.792;4.372;2022-11-20T04:44:39;66.65;;;34.20;;
24008;SDS011;12217;50.792;4.372;2022-11-20T04:47:05;75.93;;;35.58;;
24008;SDS011;12217;50.792;4.372;2022-11-20T04:49:31;73.65;;;36.22;;
24008;SDS011;12217;50.792;4.372;2022-11-20T04:51:57;72.82;;;36.17;;
24008;SDS011;12217;50.792;4.372;2022-11-20T04:54:23;73.18;;;36.90;;
24008;SDS011;12217;50.792;4.372;2022-11-20T04:56:49;73.93;;;37.20;;
24008;SDS011;12217;50.792;4.372;2022-11-20T04:59:15;71.53;;;37.10;;
24008;SDS011;12217;50.792;4.372;2022-11-20T05:01:41;75.68;;;38.15;;
24008;SDS011;12217;50.792;4.372;2022-11-20T05:04:06;79.97;;;38.38;;
24008;SDS011;12217;50.792;4.372;2022-11-20T05:06:32;74.15;;;36.88;;
24008;SDS011;12217;50.792;4.372;2022-11-20T05:08:58;74.32;;;37.38;;
24008;SDS011;12217;50.792;4.372;2022-11-20T05:11:25;79.85;;;36.33;;
24008;SDS011;12217;50.792;4.372;2022-11-20T05:13:51;74.20;;;37.25;;
24008;SDS011;12217;50.792;4.372;2022-11-20T05:16:18;77.03;;;37.03;;
24008;SDS011;12217;50.792;4.372;2022-11-20T05:18:45;82.05;;;38.13;;
24008;SDS011;12217;50.792;4.372;2022-11-20T05:21:11;79.20;;;38.13;;
24008;SDS011;12217;50.792;4.372;2022-11-20T05:23:38;77.85;;;38.22;;
24008;SDS011;12217;50.792;4.372;2022-11-20T05:26:05;84.15;;;38.30;;
24008;SDS011;12217;50.792;4.372;2022-11-20T05:28:32;82.95;;;37.95;;
24008;SDS011;12217;50.792;4.372;2022-11-20T05:31:09;75.05;;;37.85;;
24008;SDS011;12217;50.792;4.372;2022-11-20T05:33:40;80.28;;;38.30;;
24008;SDS011;12217;50.792;4.372;2022-11-20T05:36:07;86.18;;;38.83;;
24008;SDS011;12217;50.792;4.372;2022-11-20T05:38:33;85.15;;;38.58;;
24008;SDS011;12217;50.792;4.372;2022-11-20T05:41:06;91.72;;;39.75;;
24008;SDS011;12217;50.792;4.372;2022-11-20T05:43:37;88.00;;;39.83;;
24008;SDS011;12217;50.792;4.372;2022-11-20T05:46:05;94.20;;;40.03;;
24008;SDS011;12217;50.792;4.372;2022-11-20T05:48:32;92.22;;;40.30;;
24008;SDS011;12217;50.792;4.372;2022-11-20T05:50:59;85.63;;;38.60;;
24008;SDS011;12217;50.792;4.372;2022-11-20T05:53:25;85.40;;;37.83;;
24008;SDS011;12217;50.792;4.372;2022-11-20T05:55:58;97.63;;;38.97;;
24008;SDS011;12217;50.792;4.372;2022-11-20T05:58:25;92.03;;;40.60;;
24008;SDS011;12217;50.792;4.372;2022-11-20T06:00:51;87.00;;;38.22;;
24008;SDS011;12217;50.792;4.372;2022-11-20T06:03:16;99.07;;;41.67;;
24008;SDS011;12217;50.792;4.372;2022-11-20T06:05:42;87.93;;;39.63;;
24008;SDS011;12217;50.792;4.372;2022-11-20T06:08:08;88.97;;;40.05;;
24008;SDS011;12217;50.792;4.372;2022-11-20T06:10:33;85.15;;;36.55;;
24008;SDS011;12217;50.792;4.372;2022-11-20T06:12:59;89.18;;;39.15;;
24008;SDS011;12217;50.792;4.372;2022-11-20T06:15:25;89.82;;;40.00;;
24008;SDS011;12217;50.792;4.372;2022-11-20T06:17:53;88.18;;;39.70;;
24008;SDS011;12217;50.792;4.372;2022-11-20T06:20:20;90.28;;;39.03;;
24008;SDS011;12217;50.792;4.372;2022-11-20T06:22:47;83.70;;;37.60;;
24008;SDS011;12217;50.792;4.372;2022-11-20T06:25:12;77.80;;;36.78;;
24008;SDS011;12217;50.792;4.372;2022-11-20T06:27:38;81.47;;;37.10;;
24008;SDS011;12217;50.792;4.372;2022-11-20T06:30:04;84.82;;;38.50;;
24008;SDS011;12217;50.792;4.372;2022-11-20T06:32:31;85.45;;;38.60;;
24008;SDS011;12217;50.792;4.372;2022-11-20T06:34:57;89.47;;;38.80;;
24008;SDS011;12217;50.792;4.372;2022-11-20T06:37:23;82.03;;;38.03;;
24008;SDS011;12217;50.792;4.372;2022-11-20T06:39:48;81.38;;;37.78;;
24008;SDS011;12217;50.792;4.372;2022-11-20T06:42:14;85.20;;;37.88;;
24008;SDS011;12217;50.792;4.372;2022-11-20T06:44:40;81.47;;;36.70;;
24008;SDS011;12217;50.792;4.372;2022-11-20T06:47:05;81.07;;;37.05;;
24008;SDS011;12217;50.792;4.372;2022-11-20T06:49:31;77.20;;;37.03;;
24008;SDS011;12217;50.792;4.372;2022-11-20T06:51:56;76.00;;;36.28;;
24008;SDS011;12217;50.792;4.372;2022-11-20T06:54:22;74.45;;;36.20;;
24008;SDS011;12217;50.792;4.372;2022-11-20T06:56:48;74.85;;;36.22;;
24008;SDS011;12217;50.792;4.372;2022-11-20T06:59:13;74.13;;;35.47;;
24008;SDS011;12217;50.792;4.372;2022-11-20T07:01:39;72.15;;;35.22;;
24008;SDS011;12217;50.792;4.372;2022-11-20T07:04:05;73.57;;;36.30;;
24008;SDS011;12217;50.792;4.372;2022-11-20T07:06:31;70.68;;;34.38;;
24008;SDS011;12217;50.792;4.372;2022-11-20T07:08:57;68.30;;;33.50;;
24008;SDS011;12217;50.792;4.372;2022-11-20T07:11:23;71.50;;;34.25;;
24008;SDS011;12217;50.792;4.372;2022-11-20T07:13:49;68.35;;;33.00;;
24008;SDS011;12217;50.792;4.372;2022-11-20T07:16:15;73.68;;;34.83;;
24008;SDS011;12217;50.792;4.372;2022-11-20T07:18:41;70.72;;;33.70;;
24008;SDS011;12217;50.792;4.372;2022-11-20T07:21:08;68.18;;;35.00;;
24008;SDS011;12217;50.792;4.372;2022-11-20T07:23:35;66.20;;;34.50;;
24008;SDS011;12217;50.792;4.372;2022-11-20T07:26:05;64.10;;;31.58;;
24008;SDS011;12217;50.792;4.372;2022-11-20T07:28:32;70.13;;;33.22;;
24008;SDS011;12217;50.792;4.372;2022-11-20T07:30:58;73.05;;;34.05;;
24008;SDS011;12217;50.792;4.372;2022-11-20T07:33:24;76.22;;;35.92;;
24008;SDS011;12217;50.792;4.372;2022-11-20T07:35:49;69.95;;;33.38;;
24008;SDS011;12217;50.792;4.372;2022-11-20T07:38:15;78.65;;;34.67;;
24008;SDS011;12217;50.792;4.372;2022-11-20T07:40:41;75.05;;;34.55;;
24008;SDS011;12217;50.792;4.372;2022-11-20T07:43:06;73.10;;;33.75;;
24008;SDS011;12217;50.792;4.372;2022-11-20T07:45:32;81.93;;;34.53;;
24008;SDS011;12217;50.792;4.372;2022-11-20T07:47:58;78.82;;;35.38;;
24008;SDS011;12217;50.792;4.372;2022-11-20T07:50:23;85.18;;;34.38;;
24008;SDS011;12217;50.792;4.372;2022-11-20T07:52:49;73.47;;;34.10;;
24008;SDS011;12217;50.792;4.372;2022-11-20T07:55:15;72.85;;;35.72;;
24008;SDS011;12217;50.792;4.372;2022-11-20T07:57:41;79.85;;;35.63;;
24008;SDS011;12217;50.792;4.372;2022-11-20T08:00:07;78.10;;;35.63;;
24008;SDS011;12217;50.792;4.372;2022-11-20T08:02:38;80.13;;;33.42;;
24008;SDS011;12217;50.792;4.372;2022-11-20T08:05:05;79.85;;;34.95;;
24008;SDS011;12217;50.792;4.372;2022-11-20T08:07:35;89.63;;;33.42;;
24008;SDS011;12217;50.792;4.372;2022-11-20T08:10:05;84.43;;;34.72;;
24008;SDS011;12217;50.792;4.372;2022-11-20T08:12:31;78.47;;;34.25;;
24008;SDS011;12217;50.792;4.372;2022-11-20T08:15:16;77.43;;;33.88;;
24008;SDS011;12217;50.792;4.372;2022-11-20T08:17:41;79.85;;;34.55;;
24008;SDS011;12217;50.792;4.372;2022-11-20T08:20:07;77.90;;;34.25;;
24008;SDS011;12217;50.792;4.372;2022-11-20T08:22:33;79.63;;;32.05;;
24008;SDS011;12217;50.792;4.372;2022-11-20T08:24:59;77.70;;;33.88;;
24008;SDS011;12217;50.792;4.372;2022-11-20T08:27:25;78.57;;;32.63;;
24008;SDS011;12217;50.792;4.372;2022-11-20T08:29:50;79.93;;;32.75;;
24008;SDS011;12217;50.792;4.372;2022-11-20T08:32:16;74.93;;;32.65;;
24008;SDS011;12217;50.792;4.372;2022-11-20T08:34:41;87.60;;;35.38;;
24008;SDS011;12217;50.792;4.372;2022-11-20T08:37:07;75.88;;;33.63;;
24008;SDS011;12217;50.792;4.372;2022-11-20T08:39:33;75.55;;;32.55;;
24008;SDS011;12217;50.792;4.372;2022-11-20T08:41:58;72.38;;;32.30;;
24008;SDS011;12217;50.792;4.372;2022-11-20T08:44:24;73.18;;;31.55;;
24008;SDS011;12217;50.792;4.372;2022-11-20T08:46:50;74.10;;;32.78;;
24008;SDS011;12217;50.792;4.372;2022-11-20T08:49:15;69.95;;;32.67;;
24008;SDS011;12217;50.792;4.372;2022-11-20T08:51:41;71.40;;;32.88;;
24008;SDS011;12217;50.792;4.372;2022-11-20T08:54:07;73.55;;;32.20;;
24008;SDS011;12217;50.792;4.372;2022-11-20T08:56:33;71.82;;;32.53;;
24008;SDS011;12217;50.792;4.372;2022-11-20T08:58:59;71.03;;;32.40;;
24008;SDS011;12217;50.792;4.372;2022-11-20T09:01:25;65.53;;;31.23;;
24008;SDS011;12217;50.792;4.372;2022-11-20T09:03:52;64.82;;;30.98;;
24008;SDS011;12217;50.792;4.372;2022-11-20T09:06:20;64.65;;;31.10;;
24008;SDS011;12217;50.792;4.372;2022-11-20T09:08:45;63.53;;;30.58;;
24008;SDS011;12217;50.792;4.372;2022-11-20T09:11:11;64.22;;;31.63;;
24008;SDS011;12217;50.792;4.372;2022-11-20T09:13:36;57.55;;;29.00;;
24008;SDS011;12217;50.792;4.372;2022-11-20T09:16:03;59.53;;;30.02;;
24008;SDS011;12217;50.792;4.372;2022-11-20T09:18:31;58.42;;;28.73;;
24008;SDS011;12217;50.792;4.372;2022-11-20T09:20:58;55.20;;;28.05;;
24008;SDS011;12217;50.792;4.372;2022-11-20T09:23:24;56.28;;;28.30;;
24008;SDS011;12217;50.792;4.372;2022-11-20T09:25:51;49.05;;;27.08;;
24008;SDS011;12217;50.792;4.372;2022-11-20T09:28:17;49.50;;;26.90;;
24008;SDS011;12217;50.792;4.372;2022-11-20T09:30:43;49.50;;;26.33;;
24008;SDS011;12217;50.792;4.372;2022-11-20T09:33:09;55.78;;;27.13;;
24008;SDS011;12217;50.792;4.372;2022-11-20T09:35:35;50.63;;;25.75;;
24008;SDS011;12217;50.792;4.372;2022-11-20T09:38:06;47.08;;;24.77;;
24008;SDS011;12217;50.792;4.372;2022-11-20T09:40:32;51.97;;;24.95;;
24008;SDS011;12217;50.792;4.372;2022-11-20T09:43:03;37.95;;;22.30;;
24008;SDS011;12217;50.792;4.372;2022-11-20T09:46:04;40.85;;;22.88;;
24008;SDS011;12217;50.792;4.372;2022-11-20T09:48:36;33.92;;;20.23;;
24008;SDS011;12217;50.792;4.372;2022-11-20T09:51:13;32.50;;;18.52;;
24008;SDS011;12217;50.792;4.372;2022-11-20T09:54:06;39.72;;;19.92;;
24008;SDS011;12217;50.792;4.372;2022-11-20T09:56:40;31.98;;;17.98;;
24008;SDS011;12217;50.792;4.372;2022-11-20T09:59:53;28.38;;;17.13;;
24008;SDS011;12217;50.792;4.372;2022-11-20T10:01:59;28.13;;;16.70;;
24008;SDS011;12217;50.792;4.372;2022-11-20T10:04:28;29.92;;;16.25;;
24008;SDS011;12217;50.792;4.372;2022-11-20T10:06:59;24.98;;;14.63;;
24008;SDS011;12217;50.792;4.372;2022-11-20T10:09:38;26.05;;;14.95;;
24008;SDS011;12217;50.792;4.372;2022-11-20T10:14:49;27.17;;;14.23;;
24008;SDS011;12217;50.792;4.372;2022-11-20T10:18:09;20.95;;;12.93;;
24008;SDS011;12217;50.792;4.372;2022-11-20T10:25:19;20.95;;;12.38;;
24008;SDS011;12217;50.792;4.372;2022-11-20T10:30:31;18.42;;;10.63;;
24008;SDS011;12217;50.792;4.372;2022-11-20T10:33:36;14.50;;;8.73;;
24008;SDS011;12217;50.792;4.372;2022-11-20T10:38:46;20.20;;;10.50;;
24008;SDS011;12217;50.792;4.372;2022-11-20T10:41:32;14.35;;;8.35;;
24008;SDS011;12217;50.792;4.372;2022-11-20T10:49:25;21.88;;;14.98;;
24008;SDS011;12217;50.792;4.372;2022-11-20T10:54:47;12.73;;;6.32;;
24008;SDS011;12217;50.792;4.372;2022-11-20T10:57:47;11.10;;;5.88;;
24008;SDS011;12217;50.792;4.372;2022-11-20T11:00:38;10.63;;;5.30;;
24008;SDS011;12217;50.792;4.372;2022-11-20T11:03:24;13.20;;;5.72;;
24008;SDS011;12217;50.792;4.372;2022-11-20T11:06:14;9.70;;;5.75;;
24008;SDS011;12217;50.792;4.372;2022-11-20T11:08:48;13.73;;;5.55;;
24008;SDS011;12217;50.792;4.372;2022-11-20T11:11:26;12.13;;;5.10;;
24008;SDS011;12217;50.792;4.372;2022-11-20T11:14:04;9.93;;;4.90;;
24008;SDS011;12217;50.792;4.372;2022-11-20T11:16:30;11.57;;;5.55;;
24008;SDS011;12217;50.792;4.372;2022-11-20T11:21:54;12.13;;;4.80;;
24008;SDS011;12217;50.792;4.372;2022-11-20T11:24:22;9.63;;;4.18;;
24008;SDS011;12217;50.792;4.372;2022-11-20T11:26:51;10.50;;;4.38;;
24008;SDS011;12217;50.792;4.372;2022-11-20T11:29:19;9.18;;;4.72;;
24008;SDS011;12217;50.792;4.372;2022-11-20T11:31:45;10.25;;;4.78;;
24008;SDS011;12217;50.792;4.372;2022-11-20T11:34:15;8.57;;;4.13;;
24008;SDS011;12217;50.792;4.372;2022-11-20T11:36:42;13.75;;;4.65;;
24008;SDS011;12217;50.792;4.372;2022-11-20T11:39:19;9.77;;;6.10;;
24008;SDS011;12217;50.792;4.372;2022-11-20T11:41:46;9.38;;;4.38;;
24008;SDS011;12217;50.792;4.372;2022-11-20T11:44:16;8.40;;;4.22;;
24008;SDS011;12217;50.792;4.372;2022-11-20T11:47:11;7.97;;;4.10;;
24008;SDS011;12217;50.792;4.372;2022-11-20T11:50:07;10.52;;;5.53;;
24008;SDS011;12217;50.792;4.372;2022-11-20T12:01:00;9.40;;;3.80;;
24008;SDS011;12217;50.792;4.372;2022-11-20T12:03:51;7.35;;;5.07;;
24008;SDS011;12217;50.792;4.372;2022-11-20T12:06:37;15.57;;;8.50;;
24008;SDS011;12217;50.792;4.372;2022-11-20T12:09:10;10.32;;;5.35;;
24008;SDS011;12217;50.792;4.372;2022-11-20T12:11:45;8.00;;;5.30;;
24008;SDS011;12217;50.792;4.372;2022-11-20T12:17:01;54.47;;;19.60;;
24008;SDS011;12217;50.792;4.372;2022-11-20T12:19:30;57.97;;;20.55;;
24008;SDS011;12217;50.792;4.372;2022-11-20T12:30:19;11.80;;;5.28;;
24008;SDS011;12217;50.792;4.372;2022-11-20T12:36:14;9.80;;;4.65;;
24008;SDS011;12217;50.792;4.372;2022-11-20T12:49:56;11.65;;;4.72;;
24008;SDS011;12217;50.792;4.372;2022-11-20T12:52:47;9.90;;;4.63;;
24008;SDS011;12217;50.792;4.372;2022-11-20T12:55:33;11.50;;;5.18;;
24008;SDS011;12217;50.792;4.372;2022-11-20T13:01:03;6.28;;;4.18;;
24008;SDS011;12217;50.792;4.372;2022-11-20T13:04:16;9.32;;;4.50;;
24008;SDS011;12217;50.792;4.372;2022-11-20T13:06:51;10.93;;;4.93;;
24008;SDS011;12217;50.792;4.372;2022-11-20T13:09:17;9.60;;;5.25;;
24008;SDS011;12217;50.792;4.372;2022-11-20T13:12:06;9.85;;;5.10;;
24008;SDS011;12217;50.792;4.372;2022-11-20T13:14:40;11.93;;;7.47;;
24008;SDS011;12217;50.792;4.372;2022-11-20T13:19:55;9.32;;;5.50;;
24008;SDS011;12217;50.792;4.372;2022-11-20T13:22:27;8.40;;;5.10;;
24008;SDS011;12217;50.792;4.372;2022-11-20T13:24:54;11.05;;;4.90;;
24008;SDS011;12217;50.792;4.372;2022-11-20T13:27:23;7.88;;;4.80;;
24008;SDS011;12217;50.792;4.372;2022-11-20T13:29:59;8.75;;;5.50;;
24008;SDS011;12217;50.792;4.372;2022-11-20T13:35:25;7.35;;;4.85;;
24008;SDS011;12217;50.792;4.372;2022-11-20T13:38:00;7.85;;;4.68;;
24008;SDS011;12217;50.792;4.372;2022-11-20T13:40:26;7.38;;;4.57;;
24008;SDS011;12217;50.792;4.372;2022-11-20T13:45:27;7.70;;;4.82;;
24008;SDS011;12217;50.792;4.372;2022-11-20T13:47:54;7.43;;;4.55;;
24008;SDS011;12217;50.792;4.372;2022-11-20T13:50:22;6.35;;;3.97;;
24008;SDS011;12217;50.792;4.372;2022-11-20T13:53:10;7.50;;;5.72;;
24008;SDS011;12217;50.792;4.372;2022-11-20T13:58:40;9.90;;;5.60;;
24008;SDS011;12217;50.792;4.372;2022-11-20T14:01:24;9.07;;;6.22;;
24008;SDS011;12217;50.792;4.372;2022-11-20T14:03:51;10.30;;;6.55;;
24008;SDS011;12217;50.792;4.372;2022-11-20T14:08:54;7.35;;;4.10;;
24008;SDS011;12217;50.792;4.372;2022-11-20T14:11:24;6.10;;;4.80;;
24008;SDS011;12217;50.792;4.372;2022-11-20T14:16:19;6.28;;;3.85;;
24008;SDS011;12217;50.792;4.372;2022-11-20T14:18:46;5.53;;;4.13;;
24008;SDS011;12217;50.792;4.372;2022-11-20T14:21:11;4.93;;;3.20;;
24008;SDS011;12217;50.792;4.372;2022-11-20T14:23:47;3.58;;;3.20;;
24008;SDS011;12217;50.792;4.372;2022-11-20T14:26:14;4.32;;;3.92;;
24008;SDS011;12217;50.792;4.372;2022-11-20T14:31:16;4.18;;;3.33;;
24008;SDS011;12217;50.792;4.372;2022-11-20T14:33:47;3.45;;;3.15;;
24008;SDS011;12217;50.792;4.372;2022-11-20T14:36:17;5.30;;;4.47;;
24008;SDS011;12217;50.792;4.372;2022-11-20T14:38:44;4.35;;;3.95;;
24008;SDS011;12217;50.792;4.372;2022-11-20T14:41:18;7.70;;;3.95;;
24008;SDS011;12217;50.792;4.372;2022-11-20T14:43:47;4.60;;;3.90;;
24008;SDS011;12217;50.792;4.372;2022-11-20T14:46:22;5.70;;;4.43;;
24008;SDS011;12217;50.792;4.372;2022-11-20T14:48:53;6.57;;;4.53;;
24008;SDS011;12217;50.792;4.372;2022-11-20T14:54:15;6.05;;;4.35;;
24008;SDS011;12217;50.792;4.372;2022-11-20T14:57:00;4.95;;;4.38;;
24008;SDS011;12217;50.792;4.372;2022-11-20T14:59:33;7.60;;;5.40;;
24008;SDS011;12217;50.792;4.372;2022-11-20T15:04:27;6.57;;;4.25;;
24008;SDS011;12217;50.792;4.372;2022-11-20T15:06:54;5.20;;;4.25;;
24008;SDS011;12217;50.792;4.372;2022-11-20T15:09:21;8.32;;;4.85;;
24008;SDS011;12217;50.792;4.372;2022-11-20T15:11:57;7.85;;;5.05;;
24008;SDS011;12217;50.792;4.372;2022-11-20T15:14:25;7.20;;;4.90;;
24008;SDS011;12217;50.792;4.372;2022-11-20T15:16:52;8.02;;;4.65;;
24008;SDS011;12217;50.792;4.372;2022-11-20T15:19:20;8.15;;;5.60;;
24008;SDS011;12217;50.792;4.372;2022-11-20T15:21:47;6.85;;;5.13;;
24008;SDS011;12217;50.792;4.372;2022-11-20T15:24:13;10.38;;;6.60;;
24008;SDS011;12217;50.792;4.372;2022-11-20T15:26:39;9.38;;;5.60;;
24008;SDS011;12217;50.792;4.372;2022-11-20T15:29:06;9.07;;;7.10;;
24008;SDS011;12217;50.792;4.372;2022-11-20T15:31:36;7.75;;;5.60;;
24008;SDS011;12217;50.792;4.372;2022-11-20T15:34:02;7.03;;;5.38;;
24008;SDS011;12217;50.792;4.372;2022-11-20T15:36:31;13.07;;;5.60;;
24008;SDS011;12217;50.792;4.372;2022-11-20T15:38:57;9.32;;;5.68;;
24008;SDS011;12217;50.792;4.372;2022-11-20T15:41:22;8.52;;;6.13;;
24008;SDS011;12217;50.792;4.372;2022-11-20T15:43:48;12.82;;;6.03;;
24008;SDS011;12217;50.792;4.372;2022-11-20T15:46:15;9.43;;;6.13;;
24008;SDS011;12217;50.792;4.372;2022-11-20T15:48:50;12.45;;;6.32;;
24008;SDS011;12217;50.792;4.372;2022-11-20T15:51:27;12.88;;;5.50;;
24008;SDS011;12217;50.792;4.372;2022-11-20T15:53:58;16.17;;;5.93;;
24008;SDS011;12217;50.792;4.372;2022-11-20T15:56:24;10.95;;;5.88;;
24008;SDS011;12217;50.792;4.372;2022-11-20T15:58:50;10.68;;;5.30;;
24008;SDS011;12217;50.792;4.372;2022-11-20T16:01:16;10.10;;;5.25;;
24008;SDS011;12217;50.792;4.372;2022-11-20T16:03:43;15.25;;;5.43;;
24008;SDS011;12217;50.792;4.372;2022-11-20T16:06:09;9.98;;;5.57;;
24008;SDS011;12217;50.792;4.372;2022-11-20T16:08:35;14.77;;;5.65;;
24008;SDS011;12217;50.792;4.372;2022-11-20T16:11:00;11.05;;;4.90;;
24008;SDS011;12217;50.792;4.372;2022-11-20T16:13:26;12.60;;;5.25;;